createdAt,value
2023-02-16T00:00:51.961Z,21.38
2023-02-16T00:03:37.214Z,21.65
2023-02-16T00:06:24.140Z,21.05
2023-02-16T00:09:09.297Z,22.00
2023-02-16T00:12:13.413Z,22.88
2023-02-16T00:14:58.495Z,21.08
2023-02-16T00:17:43.849Z,21.25
2023-02-16T00:20:32.007Z,20.20
2023-02-16T00:23:17.495Z,21.30
2023-02-16T00:26:03.162Z,20.52
2023-02-16T00:28:54.209Z,19.35
2023-02-16T00:31:39.940Z,20.27
2023-02-16T00:34:25.334Z,19.55
2023-02-16T00:37:13.821Z,18.38
2023-02-16T00:40:01.314Z,18.63
2023-02-16T00:42:48.057Z,18.95
2023-02-16T00:45:37.346Z,19.00
2023-02-16T00:48:23.632Z,20.40
2023-02-16T00:51:25.182Z,18.75
2023-02-16T00:54:11.453Z,18.83
2023-02-16T00:56:57.662Z,21.17
2023-02-16T00:59:43.093Z,20.77
2023-02-16T01:02:29.155Z,21.52
2023-02-16T01:05:15.303Z,19.90
2023-02-16T01:08:19.668Z,21.35
2023-02-16T01:11:09.904Z,20.60
2023-02-16T01:14:00.840Z,21.15
2023-02-16T01:16:46.064Z,21.25
2023-02-16T01:19:31.320Z,20.30
2023-02-16T01:22:17.173Z,21.23
2023-02-16T01:25:02.286Z,21.38
2023-02-16T01:27:48.574Z,20.75
2023-02-16T01:30:33.796Z,22.08
2023-02-16T01:33:20.283Z,20.92
2023-02-16T01:36:06.875Z,21.77
2023-02-16T01:38:52.258Z,21.52
2023-02-16T01:42:05.937Z,21.92
2023-02-16T01:45:01.762Z,22.98
2023-02-16T01:47:57.390Z,21.85
2023-02-16T01:51:11.873Z,23.88
2023-02-16T01:54:27.501Z,22.25
2023-02-16T01:57:18.683Z,21.63
2023-02-16T02:00:12.567Z,20.98
2023-02-16T02:03:24.599Z,20.90
2023-02-16T02:06:18.029Z,21.05
2023-02-16T02:09:10.548Z,20.85
2023-02-16T02:12:22.866Z,20.58
2023-02-16T02:15:09.253Z,20.58
2023-02-16T02:17:54.457Z,21.15
2023-02-16T02:21:36.406Z,20.10
2023-02-16T02:24:49.683Z,20.00
2023-02-16T02:27:40.219Z,20.00
2023-02-16T02:30:54.767Z,19.52
2023-02-16T02:34:04.008Z,18.25
2023-02-16T02:37:19.405Z,18.77
2023-02-16T02:40:13.580Z,18.90
2023-02-16T02:43:13.488Z,19.02
2023-02-16T02:46:18.999Z,18.83
2023-02-16T02:49:05.227Z,19.33
2023-02-16T02:51:51.249Z,18.42
2023-02-16T02:54:58.779Z,19.15
2023-02-16T02:58:14.163Z,19.58
2023-02-16T03:01:00.206Z,19.30
2023-02-16T03:03:53.900Z,18.77
2023-02-16T03:06:44.272Z,17.90
2023-02-16T03:09:29.626Z,19.00
2023-02-16T03:12:35.720Z,19.25
2023-02-16T03:15:23.916Z,18.10
2023-02-16T03:18:30.994Z,18.98
2023-02-16T03:21:34.841Z,17.33
2023-02-16T03:24:47.639Z,17.25
2023-02-16T03:27:57.887Z,19.25
2023-02-16T03:30:45.214Z,18.42
2023-02-16T03:33:31.296Z,17.70
2023-02-16T03:36:16.699Z,19.40
2023-02-16T03:39:03.208Z,17.95
2023-02-16T03:41:51.408Z,19.17
2023-02-16T03:44:36.769Z,17.73
2023-02-16T03:47:22.162Z,17.73
2023-02-16T03:50:08.267Z,16.95
2023-02-16T03:53:06.502Z,17.65
2023-02-16T03:55:51.669Z,18.02
2023-02-16T03:58:36.847Z,18.38
2023-02-16T04:01:22.702Z,16.92
2023-02-16T04:04:08.345Z,18.95
2023-02-16T04:06:53.773Z,17.05
2023-02-16T04:09:39.037Z,17.67
2023-02-16T04:12:36.462Z,16.52
2023-02-16T04:15:24.406Z,16.83
2023-02-16T04:18:09.925Z,17.65
2023-02-16T04:20:55.207Z,17.48
2023-02-16T04:23:40.731Z,16.88
2023-02-16T04:26:26.001Z,17.75
2023-02-16T04:29:11.124Z,17.98
2023-02-16T04:31:56.462Z,16.65
2023-02-16T04:34:41.682Z,16.02
2023-02-16T04:37:27.236Z,16.00
2023-02-16T04:40:14.245Z,15.85
2023-02-16T04:42:59.508Z,16.80
2023-02-16T04:45:44.630Z,18.02
2023-02-16T04:48:30.109Z,16.95
2023-02-16T04:51:15.288Z,17.63
2023-02-16T04:54:00.907Z,17.00
2023-02-16T04:56:47.063Z,16.38
2023-02-16T04:59:32.280Z,17.33
2023-02-16T05:02:17.716Z,16.38
2023-02-16T05:05:03.241Z,15.77
2023-02-16T05:07:49.175Z,15.80
2023-02-16T05:10:34.317Z,17.75
2023-02-16T05:13:38.340Z,16.25
2023-02-16T05:16:24.777Z,16.88
2023-02-16T05:19:10.153Z,16.17
2023-02-16T05:21:55.345Z,15.93
2023-02-16T05:24:41.194Z,18.08
2023-02-16T05:27:30.003Z,16.48
2023-02-16T05:30:15.490Z,16.70
2023-02-16T05:33:00.723Z,17.20
2023-02-16T05:35:45.998Z,16.52
2023-02-16T05:38:31.304Z,17.23
2023-02-16T05:41:25.796Z,16.33
2023-02-16T05:44:11.835Z,17.98
2023-02-16T05:46:57.114Z,16.38
2023-02-16T05:49:42.386Z,16.40
2023-02-16T05:52:27.702Z,15.80
2023-02-16T05:55:13.123Z,16.60
2023-02-16T05:57:58.431Z,16.60
2023-02-16T06:00:43.976Z,15.68
2023-02-16T06:03:29.180Z,17.10
2023-02-16T06:06:14.724Z,16.80
2023-02-16T06:09:01.304Z,16.92
2023-02-16T06:11:46.559Z,17.85
2023-02-16T06:14:31.815Z,16.92
2023-02-16T06:17:17.267Z,18.02
2023-02-16T06:20:03.252Z,18.48
2023-02-16T06:22:48.753Z,18.38
2023-02-16T06:25:34.461Z,18.83
2023-02-16T06:28:20.052Z,18.10
2023-02-16T06:31:05.577Z,18.00
2023-02-16T06:33:51.344Z,18.17
2023-02-16T06:36:36.436Z,16.35
2023-02-16T06:39:21.812Z,17.67
2023-02-16T06:42:07.131Z,17.48
2023-02-16T06:44:52.452Z,16.80
2023-02-16T06:47:38.424Z,18.02
2023-02-16T06:50:23.474Z,17.48
2023-02-16T06:53:09.071Z,16.98
2023-02-16T06:55:54.377Z,17.17
2023-02-16T06:58:39.443Z,18.55
2023-02-16T07:01:26.094Z,18.42
2023-02-16T07:04:11.755Z,18.25
2023-02-16T07:06:56.896Z,17.23
2023-02-16T07:09:42.270Z,16.40
2023-02-16T07:12:27.581Z,17.73
2023-02-16T07:15:13.200Z,17.90
2023-02-16T07:17:58.633Z,17.05
2023-02-16T07:20:44.283Z,18.08
2023-02-16T07:23:29.600Z,19.15
2023-02-16T07:26:14.955Z,18.83
2023-02-16T07:29:00.275Z,18.45
2023-02-16T07:31:45.918Z,19.30
2023-02-16T07:34:31.583Z,19.42
2023-02-16T07:37:16.831Z,20.85
2023-02-16T07:40:02.136Z,19.35
2023-02-16T07:42:48.015Z,18.90
2023-02-16T07:45:33.923Z,18.02
2023-02-16T07:48:19.830Z,19.08
2023-02-16T07:51:05.797Z,20.38
2023-02-16T07:53:51.359Z,21.08
2023-02-16T07:56:36.885Z,19.75
2023-02-16T07:59:22.434Z,20.83
2023-02-16T08:02:14.282Z,21.88
2023-02-16T08:05:00.343Z,21.48
2023-02-16T08:07:46.838Z,21.17
2023-02-16T08:10:32.576Z,20.77
2023-02-16T08:13:17.813Z,21.77
2023-02-16T08:16:08.238Z,21.25
2023-02-16T08:18:56.266Z,29.80
2023-02-16T08:21:41.947Z,45.42
2023-02-16T08:24:27.133Z,26.15
2023-02-16T08:27:12.552Z,23.38
2023-02-16T08:29:57.669Z,23.00
2023-02-16T08:32:43.546Z,23.25
2023-02-16T08:35:31.968Z,21.90
2023-02-16T08:38:17.472Z,22.42
2023-02-16T08:41:03.035Z,21.60
2023-02-16T08:43:49.285Z,22.15
2023-02-16T08:46:36.061Z,22.13
2023-02-16T08:49:23.677Z,23.48
2023-02-16T08:52:09.975Z,25.33
2023-02-16T08:54:55.493Z,24.10
2023-02-16T08:57:40.716Z,21.38
2023-02-16T09:00:34.896Z,22.95
2023-02-16T09:03:20.176Z,21.35
2023-02-16T09:06:06.336Z,22.30
2023-02-16T09:08:53.700Z,22.55
2023-02-16T09:11:39.374Z,24.40
2023-02-16T09:14:24.843Z,20.77
2023-02-16T09:17:09.877Z,22.90
2023-02-16T09:19:55.395Z,22.50
2023-02-16T09:25:35.833Z,23.08
2023-02-16T09:28:21.451Z,23.08
2023-02-16T09:31:14.417Z,24.00
2023-02-16T09:34:02.622Z,23.25
2023-02-16T09:36:48.699Z,22.45
2023-02-16T09:39:33.990Z,23.42
2023-02-16T09:42:33.985Z,23.60
2023-02-16T09:45:21.436Z,24.35
2023-02-16T09:48:23.012Z,24.55
2023-02-16T09:51:11.495Z,24.48
2023-02-16T09:54:04.193Z,24.30
2023-02-16T09:56:56.974Z,23.65
2023-02-16T10:00:04.507Z,25.05
2023-02-16T10:03:09.341Z,24.38
2023-02-16T10:06:14.495Z,24.60
2023-02-16T10:09:11.382Z,25.10
2023-02-16T10:12:11.008Z,24.48
2023-02-16T10:15:13.980Z,25.25
2023-02-16T10:18:22.860Z,24.50
2023-02-16T10:21:17.718Z,26.03
2023-02-16T10:24:07.628Z,25.20
2023-02-16T10:27:08.216Z,24.55
2023-02-16T10:29:54.921Z,26.17
2023-02-16T10:32:55.382Z,24.85
2023-02-16T10:35:47.530Z,25.33
2023-02-16T10:39:20.309Z,24.33
2023-02-16T10:42:21.429Z,25.17
2023-02-16T10:45:21.155Z,24.92
2023-02-16T10:48:06.442Z,25.17
2023-02-16T10:51:00.897Z,25.42
2023-02-16T10:53:50.406Z,26.02
2023-02-16T10:56:38.792Z,26.27
2023-02-16T10:59:31.618Z,25.65
2023-02-16T11:02:25.266Z,25.20
2023-02-16T11:05:32.168Z,26.05
2023-02-16T11:08:20.524Z,25.83
2023-02-16T11:11:10.145Z,25.60
2023-02-16T11:14:03.315Z,24.80
2023-02-16T11:17:04.094Z,24.95
2023-02-16T11:20:05.488Z,25.58
2023-02-16T11:22:51.614Z,25.25
2023-02-16T11:25:38.046Z,27.20
2023-02-16T11:28:33.743Z,26.40
2023-02-16T11:31:33.534Z,27.50
2023-02-16T11:34:31.651Z,26.58
2023-02-16T11:37:25.378Z,24.73
2023-02-16T11:40:22.429Z,26.10
2023-02-16T11:43:17.833Z,27.20
2023-02-16T11:46:07.942Z,25.02
2023-02-16T11:48:53.726Z,24.25
2023-02-16T11:51:38.902Z,24.90
2023-02-16T11:54:24.390Z,25.88
2023-02-16T11:57:15.680Z,26.40
2023-02-16T12:00:09.138Z,26.20
2023-02-16T12:03:24.980Z,25.67
2023-02-16T12:06:59.919Z,25.33
2023-02-16T12:09:57.767Z,23.95
2023-02-16T12:13:20.360Z,25.23
2023-02-16T12:16:34.596Z,24.95
2023-02-16T12:19:46.189Z,22.98
2023-02-16T12:22:48.736Z,24.55
2023-02-16T12:25:52.986Z,24.30
2023-02-16T12:28:45.851Z,24.60
2023-02-16T12:31:47.672Z,24.17
2023-02-16T12:34:52.226Z,22.80
2023-02-16T12:37:53.980Z,24.33
2023-02-16T12:41:11.446Z,22.70
2023-02-16T12:44:02.876Z,23.73
2023-02-16T12:46:56.826Z,22.95
2023-02-16T12:50:00.966Z,24.40
2023-02-16T12:52:53.978Z,23.02
2023-02-16T12:55:56.043Z,23.13
2023-02-16T12:59:00.443Z,22.80
2023-02-16T13:01:48.194Z,22.60
2023-02-16T13:04:50.438Z,22.92
2023-02-16T13:07:37.289Z,23.35
2023-02-16T13:11:00.135Z,22.00
2023-02-16T13:13:47.769Z,21.45
2023-02-16T13:16:51.953Z,23.20
2023-02-16T13:19:36.809Z,23.00
2023-02-16T13:22:52.920Z,22.75
2023-02-16T13:26:22.742Z,21.48
2023-02-16T13:29:47.587Z,23.67
2023-02-16T13:32:56.692Z,21.35
2023-02-16T13:36:03.433Z,21.30
2023-02-16T13:39:00.665Z,21.98
2023-02-16T13:41:57.434Z,21.25
2023-02-16T13:44:47.772Z,21.95
2023-02-16T13:47:38.453Z,21.23
2023-02-16T13:50:28.270Z,19.52
2023-02-16T13:56:22.511Z,19.63
2023-02-16T13:59:17.315Z,19.65
2023-02-16T14:02:03.377Z,19.70
2023-02-16T14:04:50.445Z,18.85
2023-02-16T14:07:38.276Z,21.33
2023-02-16T14:10:55.858Z,19.92
2023-02-16T14:13:47.169Z,19.58
2023-02-16T14:16:34.521Z,20.65
2023-02-16T14:19:25.828Z,20.30
2023-02-16T14:22:12.224Z,20.35
2023-02-16T14:25:01.093Z,20.13
2023-02-16T14:28:05.602Z,19.17
2023-02-16T14:30:56.871Z,19.17
2023-02-16T14:34:15.604Z,20.85
2023-02-16T14:37:16.297Z,21.23
2023-02-16T14:40:48.271Z,19.90
2023-02-16T14:43:40.744Z,19.90
2023-02-16T14:46:52.094Z,19.80
2023-02-16T14:50:09.307Z,20.35
2023-02-16T14:53:13.164Z,18.60
2023-02-16T14:56:26.717Z,20.38
2023-02-16T14:59:33.104Z,20.38
2023-02-16T15:02:33.821Z,19.63
2023-02-16T15:05:29.646Z,19.98
2023-02-16T15:08:23.308Z,19.40
2023-02-16T15:11:23.016Z,19.38
2023-02-16T15:14:11.029Z,19.63
2023-02-16T15:16:57.907Z,18.65
2023-02-16T15:19:44.129Z,18.27
2023-02-16T15:22:29.827Z,19.70
2023-02-16T15:25:29.338Z,17.70
2023-02-16T15:28:25.892Z,18.05
2023-02-16T15:31:24.007Z,18.90
2023-02-16T15:34:26.288Z,17.98
2023-02-16T15:37:28.663Z,17.63
2023-02-16T15:40:25.468Z,18.73
2023-02-16T15:43:19.548Z,18.67
2023-02-16T15:46:08.100Z,18.05
2023-02-16T15:48:54.571Z,18.92
2023-02-16T15:51:41.445Z,19.45
2023-02-16T15:54:30.626Z,19.60
2023-02-16T15:57:38.051Z,18.98
2023-02-16T16:00:24.918Z,18.25
2023-02-16T16:03:15.602Z,18.52
2023-02-16T16:06:06.401Z,18.30
2023-02-16T16:08:51.941Z,19.05
2023-02-16T16:11:37.793Z,17.60
2023-02-16T16:14:24.247Z,18.67
2023-02-16T16:17:13.918Z,19.17
2023-02-16T16:20:24.555Z,18.77
2023-02-16T16:23:16.445Z,19.35
2023-02-16T16:26:01.708Z,20.70
2023-02-16T16:28:47.583Z,19.13
2023-02-16T16:31:38.492Z,19.25
2023-02-16T16:34:38.924Z,18.33
2023-02-16T16:37:29.188Z,19.27
2023-02-16T16:40:26.337Z,19.15
2023-02-16T16:43:18.757Z,19.23
2023-02-16T16:46:20.136Z,17.80
2023-02-16T16:49:15.731Z,19.98
2023-02-16T16:52:00.819Z,21.75
2023-02-16T16:54:48.912Z,19.15
2023-02-16T16:57:33.940Z,19.77
2023-02-16T17:00:20.789Z,19.02
2023-02-16T17:03:08.331Z,20.02
2023-02-16T17:05:53.531Z,20.00
2023-02-16T17:08:38.953Z,20.30
2023-02-16T17:11:24.407Z,20.90
2023-02-16T17:14:20.779Z,26.10
2023-02-16T17:17:08.622Z,29.55
2023-02-16T17:19:54.149Z,30.98
2023-02-16T17:22:39.565Z,32.40
2023-02-16T17:25:24.646Z,29.38
2023-02-16T17:28:11.810Z,27.23
2023-02-16T17:30:57.474Z,25.33
2023-02-16T17:33:43.026Z,23.55
2023-02-16T17:36:28.749Z,22.75
2023-02-16T17:39:14.116Z,21.73
2023-02-16T17:42:00.484Z,20.88
2023-02-16T17:44:45.897Z,21.58
2023-02-16T17:47:56.236Z,20.35
2023-02-16T17:50:41.713Z,21.23
2023-02-16T17:53:27.790Z,20.40
2023-02-16T17:56:15.539Z,21.88
2023-02-16T17:59:01.074Z,19.92
2023-02-16T18:01:46.637Z,21.83
2023-02-16T18:04:34.089Z,22.52
2023-02-16T18:07:19.674Z,21.65
2023-02-16T18:10:05.858Z,22.05
2023-02-16T18:12:51.094Z,20.10
2023-02-16T18:15:36.513Z,21.30
2023-02-16T18:18:21.968Z,22.55
2023-02-16T18:21:07.502Z,21.88
2023-02-16T18:23:52.997Z,22.10
2023-02-16T18:26:38.190Z,21.70
2023-02-16T18:29:23.660Z,22.50
2023-02-16T18:32:09.026Z,21.65
2023-02-16T18:34:54.505Z,22.83
2023-02-16T18:37:39.832Z,21.33
2023-02-16T18:40:25.224Z,22.23
2023-02-16T18:43:11.414Z,22.30
2023-02-16T18:45:56.750Z,23.52
2023-02-16T18:48:41.972Z,20.83
2023-02-16T18:51:29.312Z,20.98
2023-02-16T18:54:14.652Z,22.42
2023-02-16T18:56:59.995Z,23.35
2023-02-16T18:59:45.253Z,21.50
2023-02-16T19:02:30.454Z,20.95
2023-02-16T19:05:15.834Z,22.08
2023-02-16T19:08:01.391Z,21.55
2023-02-16T19:10:49.932Z,22.13
2023-02-16T19:13:35.165Z,24.10
2023-02-16T19:16:20.466Z,22.95
2023-02-16T19:19:06.929Z,21.25
2023-02-16T19:21:52.073Z,20.90
2023-02-16T19:24:37.444Z,22.52
2023-02-16T19:27:23.280Z,23.60
2023-02-16T19:30:09.380Z,21.05
